Gorman, California
Current Conditions -  °F | °C
As of 3:48 AM on Sunday 23 Nov 2014 (Local Time) from KSDB Reporting Station
Moderate Fog Moderate Fog  
Wind Chill: 41°   Ceiling: 100
Heat Index: 45°   Visibility: 0.25mi
Dew Point: 41°   Wind: 8mph
Humidity: 86%   Direction: 10°N
Pressure: 30.17"   Gusts: 21mph
Location:  34.75°N, 118.73°W
Report Text: KSDB 231148Z AUTO 01007G18KT 1/4SM FG VV001 07/05 A3017 RMK AO2 SLP193 60001 70003 T00720050 10083 20067 53003 $
Loading
Personal Weather Stations






























Interactive Weather Map New forecast layout! Learn more

10-Day Weather Forecast

Advertisements
Track Severe Weather on mobile